sensor_id;sensor_type;location;lat;lon;timestamp;noise_LAeq;noise_LA_min;noise_LA_max;noise_LA01;noise_LA95
67294;Laerm;58160;51.434;5.978;2023-02-28T00:00:00;31.83;30.56;34.35;;
67294;Laerm;58160;51.434;5.978;2023-02-28T00:00:11;36.97;30.79;48.85;;
67294;Laerm;58160;51.434;5.978;2023-02-28T00:00:22;31.18;30.11;32.32;;
67294;Laerm;58160;51.434;5.978;2023-02-28T00:00:33;31.19;30.05;32.31;;
67294;Laerm;58160;51.434;5.978;2023-02-28T00:00:44;31.02;29.96;31.89;;
67294;Laerm;58160;51.434;5.978;2023-02-28T00:00:54;31.03;29.81;31.78;;
67294;Laerm;58160;51.434;5.978;2023-02-28T00:01:05;31.12;30.10;32.22;;
67294;Laerm;58160;51.434;5.978;2023-02-28T00:01:15;31.08;29.91;32.11;;
67294;Laerm;58160;51.434;5.978;2023-02-28T00:01:25;31.08;29.96;32.25;;
67294;Laerm;58160;51.434;5.978;2023-02-28T00:01:36;30.96;29.90;31.91;;
67294;Laerm;58160;51.434;5.978;2023-02-28T00:01:46;31.00;29.93;32.10;;
67294;Laerm;58160;51.434;5.978;2023-02-28T00:01:56;31.10;29.89;32.31;;
67294;Laerm;58160;51.434;5.978;2023-02-28T00:02:07;31.05;29.93;32.10;;
67294;Laerm;58160;51.434;5.978;2023-02-28T00:02:17;31.03;30.05;32.17;;
67294;Laerm;58160;51.434;5.978;2023-02-28T00:02:27;31.03;30.00;31.81;;
67294;Laerm;58160;51.434;5.978;2023-02-28T00:02:38;31.06;29.96;32.02;;
67294;Laerm;58160;51.434;5.978;2023-02-28T00:02:49;31.19;29.98;32.43;;
67294;Laerm;58160;51.434;5.978;2023-02-28T00:02:59;31.02;30.18;32.48;;
67294;Laerm;58160;51.434;5.978;2023-02-28T00:03:10;31.79;29.98;35.69;;
67294;Laerm;58160;51.434;5.978;2023-02-28T00:03:20;31.40;29.90;34.91;;
67294;Laerm;58160;51.434;5.978;2023-02-28T00:03:30;31.04;30.01;32.11;;
67294;Laerm;58160;51.434;5.978;2023-02-28T00:03:45;31.05;29.94;32.37;;
67294;Laerm;58160;51.434;5.978;2023-02-28T00:03:55;31.06;30.30;32.03;;
67294;Laerm;58160;51.434;5.978;2023-02-28T00:04:06;31.12;30.08;32.20;;
67294;Laerm;58160;51.434;5.978;2023-02-28T00:04:18;31.10;29.89;32.11;;
67294;Laerm;58160;51.434;5.978;2023-02-28T00:04:28;31.01;30.04;31.99;;
67294;Laerm;58160;51.434;5.978;2023-02-28T00:04:38;31.06;30.00;32.02;;
67294;Laerm;58160;51.434;5.978;2023-02-28T00:04:49;31.14;30.19;32.05;;
67294;Laerm;58160;51.434;5.978;2023-02-28T00:05:03;31.05;29.96;32.16;;
67294;Laerm;58160;51.434;5.978;2023-02-28T00:05:14;30.99;29.85;31.99;;
67294;Laerm;58160;51.434;5.978;2023-02-28T00:05:25;31.02;30.02;32.11;;
67294;Laerm;58160;51.434;5.978;2023-02-28T00:05:36;31.03;29.92;32.40;;
67294;Laerm;58160;51.434;5.978;2023-02-28T00:05:46;31.04;29.92;34.69;;
67294;Laerm;58160;51.434;5.978;2023-02-28T00:05:57;31.02;29.87;31.93;;
67294;Laerm;58160;51.434;5.978;2023-02-28T00:06:07;31.18;29.91;32.58;;
67294;Laerm;58160;51.434;5.978;2023-02-28T00:06:19;31.21;29.91;32.74;;
67294;Laerm;58160;51.434;5.978;2023-02-28T00:06:30;31.06;30.09;31.92;;
67294;Laerm;58160;51.434;5.978;2023-02-28T00:06:41;31.16;29.85;34.35;;
67294;Laerm;58160;51.434;5.978;2023-02-28T00:06:52;31.06;29.99;32.12;;
67294;Laerm;58160;51.434;5.978;2023-02-28T00:07:02;31.26;30.00;40.22;;
67294;Laerm;58160;51.434;5.978;2023-02-28T00:07:12;31.03;29.93;32.05;;
67294;Laerm;58160;51.434;5.978;2023-02-28T00:07:23;31.08;30.11;32.15;;
67294;Laerm;58160;51.434;5.978;2023-02-28T00:07:33;31.11;29.80;32.02;;
67294;Laerm;58160;51.434;5.978;2023-02-28T00:07:43;31.10;30.22;32.30;;
67294;Laerm;58160;51.434;5.978;2023-02-28T00:07:54;31.19;30.16;32.21;;
67294;Laerm;58160;51.434;5.978;2023-02-28T00:08:05;31.27;30.23;32.34;;
67294;Laerm;58160;51.434;5.978;2023-02-28T00:08:15;31.27;30.11;33.13;;
67294;Laerm;58160;51.434;5.978;2023-02-28T00:08:25;31.24;30.22;33.19;;
67294;Laerm;58160;51.434;5.978;2023-02-28T00:08:37;31.18;29.95;32.32;;
67294;Laerm;58160;51.434;5.978;2023-02-28T00:08:48;31.21;30.13;32.67;;
67294;Laerm;58160;51.434;5.978;2023-02-28T00:08:58;31.27;30.11;32.37;;
67294;Laerm;58160;51.434;5.978;2023-02-28T00:09:08;31.24;30.18;32.20;;
67294;Laerm;58160;51.434;5.978;2023-02-28T00:09:19;31.21;30.14;32.34;;
67294;Laerm;58160;51.434;5.978;2023-02-28T00:09:29;31.19;30.22;32.22;;
67294;Laerm;58160;51.434;5.978;2023-02-28T00:09:39;31.22;30.08;32.39;;
67294;Laerm;58160;51.434;5.978;2023-02-28T00:09:50;31.15;29.89;32.16;;
67294;Laerm;58160;51.434;5.978;2023-02-28T00:10:00;31.11;30.07;32.04;;
67294;Laerm;58160;51.434;5.978;2023-02-28T00:10:12;31.29;30.23;32.52;;
67294;Laerm;58160;51.434;5.978;2023-02-28T00:10:26;31.22;29.95;32.21;;
67294;Laerm;58160;51.434;5.978;2023-02-28T00:10:37;31.20;30.20;32.44;;
67294;Laerm;58160;51.434;5.978;2023-02-28T00:10:48;31.65;30.18;44.44;;
67294;Laerm;58160;51.434;5.978;2023-02-28T00:11:02;31.17;30.13;32.17;;
67294;Laerm;58160;51.434;5.978;2023-02-28T00:11:13;31.19;30.26;32.25;;
67294;Laerm;58160;51.434;5.978;2023-02-28T00:11:24;31.23;30.01;32.41;;
67294;Laerm;58160;51.434;5.978;2023-02-28T00:11:34;31.19;30.04;32.51;;
67294;Laerm;58160;51.434;5.978;2023-02-28T00:11:44;31.16;30.20;32.14;;
67294;Laerm;58160;51.434;5.978;2023-02-28T00:11:55;31.18;30.12;32.23;;
67294;Laerm;58160;51.434;5.978;2023-02-28T00:12:05;31.20;29.63;32.52;;
67294;Laerm;58160;51.434;5.978;2023-02-28T00:12:20;31.18;29.98;32.61;;
67294;Laerm;58160;51.434;5.978;2023-02-28T00:12:30;31.34;30.46;32.50;;
67294;Laerm;58160;51.434;5.978;2023-02-28T00:12:41;31.23;29.98;32.23;;
67294;Laerm;58160;51.434;5.978;2023-02-28T00:12:52;38.93;30.41;43.77;;
67294;Laerm;58160;51.434;5.978;2023-02-28T00:13:03;34.79;31.22;39.96;;
67294;Laerm;58160;51.434;5.978;2023-02-28T00:13:14;35.73;31.48;39.89;;
67294;Laerm;58160;51.434;5.978;2023-02-28T00:13:25;46.83;37.10;55.07;;
67294;Laerm;58160;51.434;5.978;2023-02-28T00:13:36;54.65;49.91;59.24;;
67294;Laerm;58160;51.434;5.978;2023-02-28T00:13:47;55.13;51.49;57.53;;
67294;Laerm;58160;51.434;5.978;2023-02-28T00:13:58;50.76;45.21;55.24;;
67294;Laerm;58160;51.434;5.978;2023-02-28T00:14:08;47.54;44.62;51.29;;
67294;Laerm;58160;51.434;5.978;2023-02-28T00:14:19;44.99;40.09;51.85;;
67294;Laerm;58160;51.434;5.978;2023-02-28T00:14:29;41.12;37.03;52.80;;
67294;Laerm;58160;51.434;5.978;2023-02-28T00:14:40;39.55;36.43;42.98;;
67294;Laerm;58160;51.434;5.978;2023-02-28T00:14:50;39.52;33.78;44.35;;
67294;Laerm;58160;51.434;5.978;2023-02-28T00:15:01;36.89;33.12;40.95;;
67294;Laerm;58160;51.434;5.978;2023-02-28T00:15:12;34.35;32.56;37.43;;
67294;Laerm;58160;51.434;5.978;2023-02-28T00:15:23;33.88;31.65;36.69;;
67294;Laerm;58160;51.434;5.978;2023-02-28T00:15:33;33.83;31.58;39.09;;
67294;Laerm;58160;51.434;5.978;2023-02-28T00:15:44;32.89;31.18;35.86;;
67294;Laerm;58160;51.434;5.978;2023-02-28T00:15:58;32.33;30.83;34.20;;
67294;Laerm;58160;51.434;5.978;2023-02-28T00:16:10;32.18;31.02;33.67;;
67294;Laerm;58160;51.434;5.978;2023-02-28T00:16:21;32.75;31.23;34.74;;
67294;Laerm;58160;51.434;5.978;2023-02-28T00:16:32;31.75;30.26;33.16;;
67294;Laerm;58160;51.434;5.978;2023-02-28T00:16:42;31.46;30.46;32.96;;
67294;Laerm;58160;51.434;5.978;2023-02-28T00:16:52;31.57;30.38;32.85;;
67294;Laerm;58160;51.434;5.978;2023-02-28T00:17:02;31.42;30.33;32.61;;
67294;Laerm;58160;51.434;5.978;2023-02-28T00:17:13;31.37;30.38;32.57;;
67294;Laerm;58160;51.434;5.978;2023-02-28T00:17:23;31.45;30.09;32.58;;
67294;Laerm;58160;51.434;5.978;2023-02-28T00:17:33;31.27;30.00;32.37;;
67294;Laerm;58160;51.434;5.978;2023-02-28T00:17:44;31.56;30.38;32.93;;
67294;Laerm;58160;51.434;5.978;2023-02-28T00:17:54;32.01;30.44;34.16;;
67294;Laerm;58160;51.434;5.978;2023-02-28T00:18:05;32.37;30.60;36.11;;
67294;Laerm;58160;51.434;5.978;2023-02-28T00:18:15;31.76;30.48;33.20;;
67294;Laerm;58160;51.434;5.978;2023-02-28T00:18:25;31.28;30.16;32.40;;
67294;Laerm;58160;51.434;5.978;2023-02-28T00:18:36;32.31;30.37;36.92;;
67294;Laerm;58160;51.434;5.978;2023-02-28T00:18:46;31.53;30.27;32.57;;
67294;Laerm;58160;51.434;5.978;2023-02-28T00:18:57;31.71;30.55;33.32;;
67294;Laerm;58160;51.434;5.978;2023-02-28T00:19:08;31.38;30.41;32.31;;
67294;Laerm;58160;51.434;5.978;2023-02-28T00:19:18;31.29;30.28;32.42;;
67294;Laerm;58160;51.434;5.978;2023-02-28T00:19:29;31.22;30.14;32.18;;
67294;Laerm;58160;51.434;5.978;2023-02-28T00:19:39;31.16;30.21;32.28;;
67294;Laerm;58160;51.434;5.978;2023-02-28T00:19:50;31.25;30.30;32.39;;
67294;Laerm;58160;51.434;5.978;2023-02-28T00:20:00;31.25;30.14;33.43;;
67294;Laerm;58160;51.434;5.978;2023-02-28T00:20:14;31.26;29.86;33.04;;
67294;Laerm;58160;51.434;5.978;2023-02-28T00:20:25;31.16;30.12;32.47;;
67294;Laerm;58160;51.434;5.978;2023-02-28T00:20:36;31.37;30.32;33.72;;
67294;Laerm;58160;51.434;5.978;2023-02-28T00:20:47;31.16;30.15;32.70;;
67294;Laerm;58160;51.434;5.978;2023-02-28T00:20:57;31.16;29.83;32.09;;
67294;Laerm;58160;51.434;5.978;2023-02-28T00:21:08;31.18;30.10;33.04;;
67294;Laerm;58160;51.434;5.978;2023-02-28T00:21:19;31.12;30.17;32.11;;
67294;Laerm;58160;51.434;5.978;2023-02-28T00:21:29;31.20;29.88;32.12;;
67294;Laerm;58160;51.434;5.978;2023-02-28T00:21:39;31.34;30.14;32.58;;
67294;Laerm;58160;51.434;5.978;2023-02-28T00:21:50;32.55;30.07;38.79;;
67294;Laerm;58160;51.434;5.978;2023-02-28T00:22:01;31.89;30.35;37.69;;
67294;Laerm;58160;51.434;5.978;2023-02-28T00:22:11;31.95;30.35;36.84;;
67294;Laerm;58160;51.434;5.978;2023-02-28T00:22:21;31.97;30.24;37.30;;
67294;Laerm;58160;51.434;5.978;2023-02-28T00:22:32;32.00;30.25;37.30;;
67294;Laerm;58160;51.434;5.978;2023-02-28T00:22:43;31.79;30.27;36.60;;
67294;Laerm;58160;51.434;5.978;2023-02-28T00:22:54;31.98;30.34;39.13;;
67294;Laerm;58160;51.434;5.978;2023-02-28T00:23:05;31.66;30.31;36.93;;
67294;Laerm;58160;51.434;5.978;2023-02-28T00:23:15;31.69;29.84;35.67;;
67294;Laerm;58160;51.434;5.978;2023-02-28T00:23:26;31.51;30.18;36.20;;
67294;Laerm;58160;51.434;5.978;2023-02-28T00:23:36;31.79;29.99;39.12;;
67294;Laerm;58160;51.434;5.978;2023-02-28T00:23:47;31.34;30.14;35.10;;
67294;Laerm;58160;51.434;5.978;2023-02-28T00:23:57;31.75;29.63;37.96;;
67294;Laerm;58160;51.434;5.978;2023-02-28T00:24:07;31.34;29.81;35.11;;
67294;Laerm;58160;51.434;5.978;2023-02-28T00:24:18;31.04;29.91;32.22;;
67294;Laerm;58160;51.434;5.978;2023-02-28T00:24:28;31.51;30.18;36.29;;
67294;Laerm;58160;51.434;5.978;2023-02-28T00:24:38;31.06;29.79;32.97;;
67294;Laerm;58160;51.434;5.978;2023-02-28T00:24:49;31.07;30.10;31.99;;
67294;Laerm;58160;51.434;5.978;2023-02-28T00:24:59;31.71;29.93;38.34;;
67294;Laerm;58160;51.434;5.978;2023-02-28T00:25:10;31.04;30.07;31.94;;
67294;Laerm;58160;51.434;5.978;2023-02-28T00:25:22;31.19;29.77;33.36;;
67294;Laerm;58160;51.434;5.978;2023-02-28T00:25:33;31.12;30.24;32.30;;
67294;Laerm;58160;51.434;5.978;2023-02-28T00:25:43;31.09;29.82;33.30;;
67294;Laerm;58160;51.434;5.978;2023-02-28T00:25:54;31.05;30.12;32.04;;
67294;Laerm;58160;51.434;5.978;2023-02-28T00:26:04;30.98;30.12;31.85;;
67294;Laerm;58160;51.434;5.978;2023-02-28T00:26:15;31.16;29.89;32.76;;
67294;Laerm;58160;51.434;5.978;2023-02-28T00:26:25;31.05;29.98;32.10;;
67294;Laerm;58160;51.434;5.978;2023-02-28T00:26:35;31.53;29.88;37.43;;
67294;Laerm;58160;51.434;5.978;2023-02-28T00:26:46;31.10;30.17;31.94;;
67294;Laerm;58160;51.434;5.978;2023-02-28T00:26:56;31.00;29.83;31.93;;
67294;Laerm;58160;51.434;5.978;2023-02-28T00:27:06;31.06;30.12;32.32;;
67294;Laerm;58160;51.434;5.978;2023-02-28T00:27:17;31.57;30.19;35.21;;
67294;Laerm;58160;51.434;5.978;2023-02-28T00:27:27;31.10;29.95;33.12;;
67294;Laerm;58160;51.434;5.978;2023-02-28T00:27:38;31.20;30.02;33.50;;
67294;Laerm;58160;51.434;5.978;2023-02-28T00:27:49;31.10;29.88;32.53;;
67294;Laerm;58160;51.434;5.978;2023-02-28T00:28:00;31.11;30.05;32.17;;
67294;Laerm;58160;51.434;5.978;2023-02-28T00:28:10;31.04;30.14;32.73;;
67294;Laerm;58160;51.434;5.978;2023-02-28T00:28:21;31.05;30.10;32.17;;
67294;Laerm;58160;51.434;5.978;2023-02-28T00:28:31;31.05;29.87;31.99;;
67294;Laerm;58160;51.434;5.978;2023-02-28T00:28:41;30.97;29.78;32.12;;
67294;Laerm;58160;51.434;5.978;2023-02-28T00:28:52;31.21;30.11;32.13;;
67294;Laerm;58160;51.434;5.978;2023-02-28T00:29:02;31.22;30.23;32.13;;
67294;Laerm;58160;51.434;5.978;2023-02-28T00:29:13;31.14;30.20;32.34;;
67294;Laerm;58160;51.434;5.978;2023-02-28T00:29:23;31.09;29.43;32.02;;
67294;Laerm;58160;51.434;5.978;2023-02-28T00:29:33;31.09;30.15;34.15;;
67294;Laerm;58160;51.434;5.978;2023-02-28T00:29:45;31.18;30.15;32.25;;
67294;Laerm;58160;51.434;5.978;2023-02-28T00:29:56;31.23;30.13;32.23;;
67294;Laerm;58160;51.434;5.978;2023-02-28T00:30:07;31.11;30.19;32.06;;
67294;Laerm;58160;51.434;5.978;2023-02-28T00:30:18;31.06;30.22;32.17;;
67294;Laerm;58160;51.434;5.978;2023-02-28T00:30:29;31.15;29.92;32.31;;
67294;Laerm;58160;51.434;5.978;2023-02-28T00:30:39;31.26;30.15;32.66;;
67294;Laerm;58160;51.434;5.978;2023-02-28T00:30:50;31.32;30.12;32.35;;
67294;Laerm;58160;51.434;5.978;2023-02-28T00:31:00;31.44;30.14;32.57;;
67294;Laerm;58160;51.434;5.978;2023-02-28T00:31:11;39.07;30.43;52.58;;
67294;Laerm;58160;51.434;5.978;2023-02-28T00:31:21;32.43;31.10;34.06;;
67294;Laerm;58160;51.434;5.978;2023-02-28T00:31:31;33.26;30.60;36.43;;
67294;Laerm;58160;51.434;5.978;2023-02-28T00:31:42;32.16;30.62;34.34;;
67294;Laerm;58160;51.434;5.978;2023-02-28T00:31:52;32.62;30.76;36.04;;
67294;Laerm;58160;51.434;5.978;2023-02-28T00:32:02;31.76;30.25;32.82;;
67294;Laerm;58160;51.434;5.978;2023-02-28T00:32:13;31.73;30.51;35.39;;
67294;Laerm;58160;51.434;5.978;2023-02-28T00:32:23;32.75;30.61;38.34;;
67294;Laerm;58160;51.434;5.978;2023-02-28T00:32:34;32.36;30.93;34.30;;
67294;Laerm;58160;51.434;5.978;2023-02-28T00:32:44;33.42;31.43;35.46;;
67294;Laerm;58160;51.434;5.978;2023-02-28T00:32:54;32.01;30.50;34.23;;
67294;Laerm;58160;51.434;5.978;2023-02-28T00:33:05;31.33;30.25;32.46;;
67294;Laerm;58160;51.434;5.978;2023-02-28T00:33:15;31.70;30.61;33.33;;
67294;Laerm;58160;51.434;5.978;2023-02-28T00:33:26;31.92;30.64;33.56;;
67294;Laerm;58160;51.434;5.978;2023-02-28T00:33:37;32.60;31.20;34.63;;
67294;Laerm;58160;51.434;5.978;2023-02-28T00:33:47;31.45;30.46;33.26;;
67294;Laerm;58160;51.434;5.978;2023-02-28T00:33:57;32.36;30.59;34.29;;
67294;Laerm;58160;51.434;5.978;2023-02-28T00:34:08;34.42;30.48;48.38;;
67294;Laerm;58160;51.434;5.978;2023-02-28T00:34:18;31.55;30.62;32.61;;
67294;Laerm;58160;51.434;5.978;2023-02-28T00:34:28;31.57;30.16;34.99;;
67294;Laerm;58160;51.434;5.978;2023-02-28T00:34:39;31.38;30.09;34.57;;
67294;Laerm;58160;51.434;5.978;2023-02-28T00:34:49;31.78;30.36;39.68;;
67294;Laerm;58160;51.434;5.978;2023-02-28T00:35:00;31.20;30.11;32.19;;
67294;Laerm;58160;51.434;5.978;2023-02-28T00:35:10;31.73;30.51;35.69;;
67294;Laerm;58160;51.434;5.978;2023-02-28T00:35:21;31.43;30.44;33.84;;
67294;Laerm;58160;51.434;5.978;2023-02-28T00:35:31;31.21;30.12;32.75;;
67294;Laerm;58160;51.434;5.978;2023-02-28T00:35:42;31.16;30.12;32.87;;
67294;Laerm;58160;51.434;5.978;2023-02-28T00:36:00;31.26;30.26;32.97;;
67294;Laerm;58160;51.434;5.978;2023-02-28T00:36:11;31.21;29.93;32.64;;
67294;Laerm;58160;51.434;5.978;2023-02-28T00:36:21;31.21;29.87;33.91;;
67294;Laerm;58160;51.434;5.978;2023-02-28T00:36:31;31.62;30.13;37.84;;
67294;Laerm;58160;51.434;5.978;2023-02-28T00:36:42;31.42;30.18;33.48;;
67294;Laerm;58160;51.434;5.978;2023-02-28T00:36:55;32.78;30.00;39.09;;
67294;Laerm;58160;51.434;5.978;2023-02-28T00:37:06;32.69;30.32;38.74;;
67294;Laerm;58160;51.434;5.978;2023-02-28T00:37:17;31.27;30.26;32.66;;
67294;Laerm;58160;51.434;5.978;2023-02-28T00:37:27;31.21;30.29;32.22;;
67294;Laerm;58160;51.434;5.978;2023-02-28T00:37:38;31.45;30.39;33.13;;
67294;Laerm;58160;51.434;5.978;2023-02-28T00:37:48;31.19;29.78;32.23;;
67294;Laerm;58160;51.434;5.978;2023-02-28T00:37:59;31.10;30.03;32.10;;
67294;Laerm;58160;51.434;5.978;2023-02-28T00:38:10;31.06;29.97;32.24;;
67294;Laerm;58160;51.434;5.978;2023-02-28T00:38:20;31.14;30.19;32.28;;
67294;Laerm;58160;51.434;5.978;2023-02-28T00:38:30;31.16;30.24;32.10;;
67294;Laerm;58160;51.434;5.978;2023-02-28T00:38:41;31.18;29.94;32.66;;
67294;Laerm;58160;51.434;5.978;2023-02-28T00:38:51;31.09;30.02;31.92;;
67294;Laerm;58160;51.434;5.978;2023-02-28T00:39:02;31.08;29.88;32.04;;
67294;Laerm;58160;51.434;5.978;2023-02-28T00:39:12;31.22;30.17;32.79;;
67294;Laerm;58160;51.434;5.978;2023-02-28T00:39:22;31.61;30.15;34.25;;
67294;Laerm;58160;51.434;5.978;2023-02-28T00:39:33;32.30;31.03;34.82;;
67294;Laerm;58160;51.434;5.978;2023-02-28T00:39:44;31.90;30.46;33.42;;
67294;Laerm;58160;51.434;5.978;2023-02-28T00:39:54;31.85;30.31;34.02;;
67294;Laerm;58160;51.434;5.978;2023-02-28T00:40:05;31.42;30.35;32.71;;
67294;Laerm;58160;51.434;5.978;2023-02-28T00:40:16;31.40;30.25;32.45;;
67294;Laerm;58160;51.434;5.978;2023-02-28T00:40:26;31.46;30.38;32.81;;
67294;Laerm;58160;51.434;5.978;2023-02-28T00:40:37;31.49;30.24;36.51;;
67294;Laerm;58160;51.434;5.978;2023-02-28T00:40:47;31.38;30.55;32.81;;
67294;Laerm;58160;51.434;5.978;2023-02-28T00:40:57;31.32;30.06;32.80;;
67294;Laerm;58160;51.434;5.978;2023-02-28T00:41:08;31.30;30.31;32.54;;
67294;Laerm;58160;51.434;5.978;2023-02-28T00:41:19;31.14;30.07;32.10;;
67294;Laerm;58160;51.434;5.978;2023-02-28T00:41:29;31.23;30.14;38.41;;
67294;Laerm;58160;51.434;5.978;2023-02-28T00:41:39;31.10;30.19;32.00;;
67294;Laerm;58160;51.434;5.978;2023-02-28T00:41:50;31.20;29.98;32.12;;
67294;Laerm;58160;51.434;5.978;2023-02-28T00:42:00;31.37;30.44;32.26;;
67294;Laerm;58160;51.434;5.978;2023-02-28T00:42:11;31.29;30.10;32.83;;
67294;Laerm;58160;51.434;5.978;2023-02-28T00:42:21;31.24;30.18;32.90;;
67294;Laerm;58160;51.434;5.978;2023-02-28T00:42:32;31.24;30.28;32.29;;
67294;Laerm;58160;51.434;5.978;2023-02-28T00:42:42;31.26;30.33;32.76;;
67294;Laerm;58160;51.434;5.978;2023-02-28T00:42:52;31.83;30.07;35.61;;
67294;Laerm;58160;51.434;5.978;2023-02-28T00:43:03;31.42;30.53;32.38;;
67294;Laerm;58160;51.434;5.978;2023-02-28T00:43:14;31.44;30.50;32.56;;
67294;Laerm;58160;51.434;5.978;2023-02-28T00:43:24;31.32;30.42;32.55;;
67294;Laerm;58160;51.434;5.978;2023-02-28T00:43:35;31.44;30.37;32.60;;
67294;Laerm;58160;51.434;5.978;2023-02-28T00:43:46;31.36;30.29;36.47;;
67294;Laerm;58160;51.434;5.978;2023-02-28T00:43:56;31.35;30.27;36.79;;
67294;Laerm;58160;51.434;5.978;2023-02-28T00:44:07;31.26;30.08;32.28;;
67294;Laerm;58160;51.434;5.978;2023-02-28T00:44:17;31.23;30.13;32.39;;
67294;Laerm;58160;51.434;5.978;2023-02-28T00:44:27;31.29;30.21;32.19;;
67294;Laerm;58160;51.434;5.978;2023-02-28T00:44:38;31.20;30.10;32.35;;
67294;Laerm;58160;51.434;5.978;2023-02-28T00:44:48;31.17;30.18;32.44;;
67294;Laerm;58160;51.434;5.978;2023-02-28T00:44:58;31.21;29.55;32.41;;
67294;Laerm;58160;51.434;5.978;2023-02-28T00:45:09;31.30;30.40;32.19;;
67294;Laerm;58160;51.434;5.978;2023-02-28T00:45:19;31.43;30.15;32.77;;
67294;Laerm;58160;51.434;5.978;2023-02-28T00:45:30;31.34;30.27;32.16;;
67294;Laerm;58160;51.434;5.978;2023-02-28T00:45:40;31.36;30.24;32.41;;
67294;Laerm;58160;51.434;5.978;2023-02-28T00:45:50;32.14;30.67;34.24;;
67294;Laerm;58160;51.434;5.978;2023-02-28T00:46:01;32.33;30.59;34.64;;
67294;Laerm;58160;51.434;5.978;2023-02-28T00:46:12;32.20;30.70;34.67;;
67294;Laerm;58160;51.434;5.978;2023-02-28T00:46:22;31.69;30.25;33.19;;
67294;Laerm;58160;51.434;5.978;2023-02-28T00:46:32;31.78;30.67;33.34;;
67294;Laerm;58160;51.434;5.978;2023-02-28T00:46:43;31.79;30.25;33.18;;
67294;Laerm;58160;51.434;5.978;2023-02-28T00:46:53;31.56;30.40;33.57;;
67294;Laerm;58160;51.434;5.978;2023-02-28T00:47:04;32.92;30.39;35.48;;
67294;Laerm;58160;51.434;5.978;2023-02-28T00:47:14;32.22;30.67;34.53;;
67294;Laerm;58160;51.434;5.978;2023-02-28T00:47:25;32.28;30.75;34.34;;
67294;Laerm;58160;51.434;5.978;2023-02-28T00:47:35;32.90;30.95;34.89;;
67294;Laerm;58160;51.434;5.978;2023-02-28T00:47:45;33.27;31.62;36.09;;
67294;Laerm;58160;51.434;5.978;2023-02-28T00:47:59;34.28;32.02;37.77;;
67294;Laerm;58160;51.434;5.978;2023-02-28T00:48:09;33.75;31.47;37.82;;
67294;Laerm;58160;51.434;5.978;2023-02-28T00:48:20;34.07;31.51;37.55;;
67294;Laerm;58160;51.434;5.978;2023-02-28T00:48:30;31.57;30.40;33.24;;
67294;Laerm;58160;51.434;5.978;2023-02-28T00:48:40;31.22;30.02;32.27;;
67294;Laerm;58160;51.434;5.978;2023-02-28T00:48:51;31.16;30.17;32.52;;
67294;Laerm;58160;51.434;5.978;2023-02-28T00:49:01;31.22;30.15;32.25;;
67294;Laerm;58160;51.434;5.978;2023-02-28T00:49:11;36.29;30.24;42.10;;
67294;Laerm;58160;51.434;5.978;2023-02-28T00:49:22;37.59;31.67;42.03;;
67294;Laerm;58160;51.434;5.978;2023-02-28T00:49:32;35.42;32.28;38.16;;
67294;Laerm;58160;51.434;5.978;2023-02-28T00:49:43;34.64;31.83;37.52;;
67294;Laerm;58160;51.434;5.978;2023-02-28T00:49:53;36.20;32.02;39.53;;
67294;Laerm;58160;51.434;5.978;2023-02-28T00:50:04;43.53;35.58;49.85;;
67294;Laerm;58160;51.434;5.978;2023-02-28T00:50:20;49.45;46.00;53.53;;
67294;Laerm;58160;51.434;5.978;2023-02-28T00:50:31;48.56;45.03;53.06;;
67294;Laerm;58160;51.434;5.978;2023-02-28T00:50:41;46.97;37.93;52.09;;
67294;Laerm;58160;51.434;5.978;2023-02-28T00:50:52;38.95;35.61;44.52;;
67294;Laerm;58160;51.434;5.978;2023-02-28T00:51:02;42.44;38.30;47.07;;
67294;Laerm;58160;51.434;5.978;2023-02-28T00:51:13;39.17;35.12;44.03;;
67294;Laerm;58160;51.434;5.978;2023-02-28T00:51:23;40.42;36.30;45.04;;
67294;Laerm;58160;51.434;5.978;2023-02-28T00:51:34;37.06;33.44;42.90;;
67294;Laerm;58160;51.434;5.978;2023-02-28T00:51:44;36.15;33.28;42.61;;
67294;Laerm;58160;51.434;5.978;2023-02-28T00:51:55;36.47;33.61;40.07;;
67294;Laerm;58160;51.434;5.978;2023-02-28T00:52:06;33.83;31.90;37.63;;
67294;Laerm;58160;51.434;5.978;2023-02-28T00:52:19;33.76;31.53;37.64;;
67294;Laerm;58160;51.434;5.978;2023-02-28T00:52:29;34.08;31.07;38.59;;
67294;Laerm;58160;51.434;5.978;2023-02-28T00:52:40;32.34;30.64;34.20;;
67294;Laerm;58160;51.434;5.978;2023-02-28T00:52:50;32.13;30.72;33.98;;
67294;Laerm;58160;51.434;5.978;2023-02-28T00:53:00;31.78;30.47;33.18;;
67294;Laerm;58160;51.434;5.978;2023-02-28T00:53:11;31.46;30.19;32.61;;
67294;Laerm;58160;51.434;5.978;2023-02-28T00:53:21;31.57;30.47;32.61;;
67294;Laerm;58160;51.434;5.978;2023-02-28T00:53:32;31.51;30.53;32.60;;
67294;Laerm;58160;51.434;5.978;2023-02-28T00:53:42;31.32;30.18;32.38;;
67294;Laerm;58160;51.434;5.978;2023-02-28T00:53:58;31.34;30.24;32.37;;
67294;Laerm;58160;51.434;5.978;2023-02-28T00:54:15;31.28;30.04;32.51;;
67294;Laerm;58160;51.434;5.978;2023-02-28T00:54:25;32.66;30.36;42.94;;
67294;Laerm;58160;51.434;5.978;2023-02-28T00:54:36;31.82;30.54;34.92;;
67294;Laerm;58160;51.434;5.978;2023-02-28T00:54:46;36.77;31.16;41.54;;
67294;Laerm;58160;51.434;5.978;2023-02-28T00:54:56;37.33;32.87;42.19;;
67294;Laerm;58160;51.434;5.978;2023-02-28T00:55:07;34.81;31.36;39.31;;
67294;Laerm;58160;51.434;5.978;2023-02-28T00:55:17;33.36;31.36;36.44;;
67294;Laerm;58160;51.434;5.978;2023-02-28T00:55:28;34.63;31.97;37.57;;
67294;Laerm;58160;51.434;5.978;2023-02-28T00:55:38;33.71;30.98;36.24;;
67294;Laerm;58160;51.434;5.978;2023-02-28T00:55:49;33.97;31.62;36.43;;
67294;Laerm;58160;51.434;5.978;2023-02-28T00:56:00;34.61;31.90;37.98;;
67294;Laerm;58160;51.434;5.978;2023-02-28T00:56:10;35.43;32.21;38.43;;
67294;Laerm;58160;51.434;5.978;2023-02-28T00:56:21;47.81;34.48;55.72;;
67294;Laerm;58160;51.434;5.978;2023-02-28T00:56:31;42.45;37.35;49.48;;
67294;Laerm;58160;51.434;5.978;2023-02-28T00:56:42;40.92;36.28;44.76;;
67294;Laerm;58160;51.434;5.978;2023-02-28T00:56:52;41.52;37.66;46.07;;
67294;Laerm;58160;51.434;5.978;2023-02-28T00:57:02;38.56;35.96;42.80;;
67294;Laerm;58160;51.434;5.978;2023-02-28T00:57:13;37.13;35.33;38.81;;
67294;Laerm;58160;51.434;5.978;2023-02-28T00:57:23;44.15;35.84;50.83;;
67294;Laerm;58160;51.434;5.978;2023-02-28T00:57:33;53.01;47.19;56.99;;
67294;Laerm;58160;51.434;5.978;2023-02-28T00:57:44;54.78;52.56;57.53;;
67294;Laerm;58160;51.434;5.978;2023-02-28T00:57:54;55.85;51.92;59.91;;
67294;Laerm;58160;51.434;5.978;2023-02-28T00:58:04;53.75;47.87;58.43;;
67294;Laerm;58160;51.434;5.978;2023-02-28T00:58:15;48.01;43.27;51.80;;
67294;Laerm;58160;51.434;5.978;2023-02-28T00:58:25;43.14;38.45;48.09;;
67294;Laerm;58160;51.434;5.978;2023-02-28T00:58:35;41.78;38.71;46.14;;
67294;Laerm;58160;51.434;5.978;2023-02-28T00:58:45;41.10;36.54;45.87;;
67294;Laerm;58160;51.434;5.978;2023-02-28T00:58:56;38.42;34.32;43.81;;
67294;Laerm;58160;51.434;5.978;2023-02-28T00:59:06;37.14;34.08;40.97;;
67294;Laerm;58160;51.434;5.978;2023-02-28T00:59:17;37.63;33.92;41.55;;
67294;Laerm;58160;51.434;5.978;2023-02-28T00:59:27;35.05;32.97;38.07;;
67294;Laerm;58160;51.434;5.978;2023-02-28T00:59:37;35.06;32.73;37.40;;
67294;Laerm;58160;51.434;5.978;2023-02-28T00:59:48;33.90;31.66;36.20;;